Time;durP1;ratioP1;P1;durP2;ratioP2;P2;SDS_P1;SDS_P2;PMS_P1;PMS_P2;Temp;Humidity;BMP_temperature;BMP_pressure;BME280_temperature;BME280_humidity;BME280_pressure;Samples;Min_cycle;Max_cycle;Signal;HPM_P1;HPM_P2
2022/12/24 00:00:16;;;;;;;6.57;5.83;;;5.50;92.40;;;;;;4991782;28;21075;-50
2022/12/24 00:02:43;;;;;;;6.00;5.50;;;5.50;92.70;;;;;;5004047;22;20607;-54
2022/12/24 00:05:10;;;;;;;6.10;5.60;;;5.40;91.90;;;;;;4992378;28;21032;-55
2022/12/24 00:07:37;;;;;;;6.33;5.77;;;5.40;92.10;;;;;;4997332;28;20471;-56
2022/12/24 00:10:03;;;;;;;6.87;6.17;;;5.50;92.10;;;;;;4993572;28;20468;-55
2022/12/24 00:12:30;;;;;;;9.13;5.03;;;5.50;92.20;;;;;;4994546;28;21002;-56
2022/12/24 00:14:58;;;;;;;5.63;5.17;;;5.50;93.00;;;;;;4991404;28;20507;-55
2022/12/24 00:17:25;;;;;;;6.73;5.77;;;5.50;92.20;;;;;;4993845;28;20492;-55
2022/12/24 00:19:51;;;;;;;6.10;5.60;;;5.50;92.60;;;;;;4989791;28;20587;-56
2022/12/24 00:22:18;;;;;;;6.50;5.40;;;5.50;92.00;;;;;;4992144;28;20974;-56
2022/12/24 00:24:44;;;;;;;5.70;4.43;;;5.50;92.10;;;;;;4992263;28;20552;-56
2022/12/24 00:27:11;;;;;;;5.53;4.93;;;5.50;92.10;;;;;;4992990;28;20551;-56
2022/12/24 00:29:37;;;;;;;6.00;5.07;;;5.50;92.10;;;;;;4992042;28;20548;-56
2022/12/24 00:32:08;;;;;;;5.20;4.80;;;5.50;92.30;;;;;;4992955;28;20467;-56
2022/12/24 00:34:35;;;;;;;4.80;4.40;;;5.50;92.30;;;;;;4990868;28;20461;-54
2022/12/24 00:37:02;;;;;;;5.60;5.10;;;5.50;92.00;;;;;;4991837;28;20911;-55
2022/12/24 00:39:28;;;;;;;4.67;4.37;;;5.40;92.30;;;;;;4993575;28;20508;-55
2022/12/24 00:41:55;;;;;;;6.10;5.10;;;5.50;92.20;;;;;;4991222;28;20551;-55
2022/12/24 00:44:21;;;;;;;4.73;4.43;;;5.40;91.70;;;;;;4989008;28;20568;-55
2022/12/24 00:46:48;;;;;;;5.33;4.93;;;5.40;92.00;;;;;;4992689;28;20902;-55
2022/12/24 00:49:16;;;;;;;5.23;4.73;;;5.40;92.40;;;;;;4992979;28;20899;-54
2022/12/24 00:51:42;;;;;;;6.77;4.90;;;5.40;91.60;;;;;;4993447;28;20463;-54
2022/12/24 00:54:09;;;;;;;5.30;4.90;;;5.40;92.20;;;;;;4991558;28;20559;-54
2022/12/24 00:56:35;;;;;;;5.50;5.10;;;5.30;91.80;;;;;;4987292;28;20465;-54
2022/12/24 00:59:02;;;;;;;7.20;6.50;;;5.40;92.90;;;;;;4991284;28;20563;-53
2022/12/24 01:01:29;;;;;;;5.73;5.23;;;5.40;92.50;;;;;;4984780;28;20575;-53
2022/12/24 01:05:09;;;;;;;5.83;5.30;;;5.30;92.30;;;;;;4991012;28;20547;-54
2022/12/24 01:06:43;;;;;;;9.60;5.47;;;5.40;92.10;;;;;;4993379;28;20429;-54
2022/12/24 01:09:10;;;;;;;6.00;4.73;;;5.30;91.90;;;;;;4993422;28;20461;-55
2022/12/24 01:11:37;;;;;;;6.00;5.40;;;5.30;92.30;;;;;;4991921;28;20460;-54
2022/12/24 01:14:03;;;;;;;5.70;5.23;;;5.30;92.30;;;;;;4991237;28;20955;-54
2022/12/24 01:16:31;;;;;;;6.90;5.67;;;5.30;92.40;;;;;;4989742;28;20895;-55
2022/12/24 01:18:57;;;;;;;6.27;5.43;;;5.30;92.00;;;;;;4992444;28;20547;-55
2022/12/24 01:21:24;;;;;;;5.83;5.33;;;5.20;92.20;;;;;;4992085;28;20579;-55
2022/12/24 01:23:52;;;;;;;8.00;5.97;;;5.20;91.90;;;;;;4992450;28;20500;-55
2022/12/24 01:26:18;;;;;;;7.93;5.80;;;5.20;91.90;;;;;;4991358;28;20568;-54
2022/12/24 01:28:45;;;;;;;6.47;5.87;;;5.20;92.40;;;;;;4992246;28;20557;-55
2022/12/24 01:31:13;;;;;;;7.17;5.73;;;5.10;91.80;;;;;;4992111;28;20495;-55
2022/12/24 01:33:40;;;;;;;6.80;6.10;;;5.20;92.10;;;;;;4989945;28;20488;-56
2022/12/24 01:36:07;;;;;;;5.77;5.17;;;5.20;91.90;;;;;;4988188;28;20487;-54
2022/12/24 01:38:34;;;;;;;6.87;6.10;;;5.10;91.80;;;;;;4987130;28;20496;-55
2022/12/24 01:43:46;;;;;;;6.33;5.73;;;5.20;92.10;;;;;;4992138;28;20507;-56
2022/12/24 01:46:16;;;;;;;6.87;5.60;;;5.20;91.30;;;;;;4990449;28;20945;-54
2022/12/24 01:48:45;;;;;;;5.73;5.23;;;5.10;91.00;;;;;;4989851;28;20540;-54
2022/12/24 01:51:19;;;;;;;7.20;6.50;;;5.20;91.00;;;;;;4987992;28;20496;-55
2022/12/24 01:53:51;;;;;;;6.10;5.60;;;5.20;91.30;;;;;;4992637;28;20496;-55
2022/12/24 01:56:20;;;;;;;7.30;6.50;;;5.10;91.40;;;;;;4987797;28;21424;-53
2022/12/24 01:58:52;;;;;;;6.70;6.10;;;5.10;91.50;;;;;;4990087;28;20548;-54
2022/12/24 02:01:19;;;;;;;14.40;6.57;;;5.20;91.20;;;;;;4984842;28;21080;-55
2022/12/24 02:03:45;;;;;;;6.97;6.17;;;5.20;91.30;;;;;;4979921;28;20594;-56
2022/12/24 02:06:16;;;;;;;6.37;5.87;;;5.20;91.20;;;;;;4988530;28;20588;-55
2022/12/24 02:08:43;;;;;;;6.47;5.90;;;5.10;90.90;;;;;;4990313;28;20547;-56
2022/12/24 02:11:14;;;;;;;7.07;6.10;;;5.20;90.90;;;;;;4990157;28;20892;-54
2022/12/24 02:13:47;;;;;;;6.70;6.10;;;5.10;90.70;;;;;;4991552;28;20905;-54
2022/12/24 02:16:27;;;;;;;6.77;6.17;;;5.10;90.80;;;;;;4989564;28;20547;-53
2022/12/24 02:19:05;;;;;;;12.77;6.70;;;5.10;90.80;;;;;;4986384;28;20740;-54
2022/12/24 02:21:46;;;;;;;8.77;6.30;;;5.10;90.90;;;;;;4985787;28;20546;-55
2022/12/24 02:24:30;;;;;;;7.43;6.73;;;5.20;90.90;;;;;;4990864;28;20902;-54
2022/12/24 02:27:09;;;;;;;7.23;6.60;;;5.20;90.50;;;;;;4991050;28;20503;-54
2022/12/24 02:30:14;;;;;;;8.27;7.47;;;5.10;90.50;;;;;;4989397;28;20544;-54
2022/12/24 02:32:56;;;;;;;11.30;8.60;;;5.10;90.60;;;;;;4978880;28;20484;-55
2022/12/24 02:35:30;;;;;;;10.13;8.10;;;5.10;90.50;;;;;;4985746;28;20481;-56
2022/12/24 02:38:02;;;;;;;6.87;6.27;;;5.10;89.80;;;;;;4988551;28;20552;-55
2022/12/24 02:40:35;;;;;;;7.40;6.70;;;5.10;90.10;;;;;;4984320;28;20535;-56
2022/12/24 02:43:09;;;;;;;7.57;6.90;;;5.10;89.70;;;;;;4988444;28;20571;-56
2022/12/24 02:45:38;;;;;;;7.20;6.50;;;5.10;89.70;;;;;;4980756;28;20555;-51
2022/12/24 02:48:13;;;;;;;10.20;7.77;;;5.10;89.50;;;;;;4990588;28;21030;-52
2022/12/24 02:50:40;;;;;;;8.20;7.37;;;5.20;89.60;;;;;;4989076;28;20559;-53
2022/12/24 02:53:09;;;;;;;9.77;7.77;;;5.20;89.30;;;;;;4987673;28;21033;-53
2022/12/24 02:55:47;;;;;;;10.13;7.43;;;5.20;89.20;;;;;;4987951;28;20471;-50
2022/12/24 02:58:26;;;;;;;11.90;8.07;;;5.10;88.80;;;;;;4983826;28;20552;-52
2022/12/24 03:01:15;;;;;;;9.90;7.67;;;5.10;88.60;;;;;;4989016;28;20567;-53
2022/12/24 03:03:58;;;;;;;10.30;8.73;;;5.10;88.80;;;;;;4989962;28;20502;-53
2022/12/24 03:06:33;;;;;;;12.97;7.80;;;5.20;88.80;;;;;;4988752;28;20933;-53
2022/12/24 03:09:03;;;;;;;10.20;7.50;;;5.20;88.50;;;;;;4990164;28;20478;-52
2022/12/24 03:11:30;;;;;;;9.37;7.80;;;5.20;88.60;;;;;;4994731;28;20584;-52
2022/12/24 03:13:59;;;;;;;9.20;7.93;;;5.10;88.30;;;;;;4990691;28;20531;-52
2022/12/24 03:16:27;;;;;;;10.77;7.83;;;5.10;88.30;;;;;;4992760;28;20552;-52
2022/12/24 03:18:57;;;;;;;10.50;9.40;;;5.10;88.30;;;;;;4993188;28;20547;-52
2022/12/24 03:21:27;;;;;;;9.10;8.20;;;5.10;88.10;;;;;;4992892;28;20575;-51
2022/12/24 03:23:56;;;;;;;10.27;9.00;;;5.10;88.70;;;;;;4989728;28;20591;-51
2022/12/24 03:26:24;;;;;;;8.70;7.90;;;5.10;88.60;;;;;;4993711;28;20563;-52
2022/12/24 03:28:51;;;;;;;9.17;8.27;;;5.10;88.50;;;;;;4993983;28;20904;-51
2022/12/24 03:31:18;;;;;;;13.00;8.63;;;5.10;88.20;;;;;;4992742;28;20543;-51
2022/12/24 03:33:45;;;;;;;9.90;7.97;;;5.10;88.10;;;;;;4993163;28;20488;-51
2022/12/24 03:36:13;;;;;;;8.17;7.37;;;5.10;87.90;;;;;;4992414;28;20539;-52
2022/12/24 03:38:40;;;;;;;12.50;8.77;;;5.10;87.90;;;;;;4990937;28;20894;-53
2022/12/24 03:41:08;;;;;;;9.70;8.20;;;5.10;88.10;;;;;;4990422;28;21069;-53
2022/12/24 03:43:34;;;;;;;9.47;8.50;;;5.10;87.90;;;;;;4985947;28;20559;-51
2022/12/24 03:46:04;;;;;;;9.80;8.57;;;5.10;87.80;;;;;;4988615;28;20914;-51
2022/12/24 03:48:33;;;;;;;11.53;7.93;;;5.10;87.90;;;;;;4989818;28;20553;-51
2022/12/24 03:50:59;;;;;;;10.17;8.00;;;5.10;87.50;;;;;;4992981;28;20535;-51
2022/12/24 03:53:27;;;;;;;9.47;8.50;;;5.10;87.20;;;;;;4994292;28;20576;-51
2022/12/24 03:55:54;;;;;;;10.83;9.10;;;5.10;87.00;;;;;;4992631;28;20664;-51
2022/12/24 03:58:20;;;;;;;8.80;7.90;;;5.10;87.60;;;;;;4991074;28;20527;-51
2022/12/24 04:00:47;;;;;;;10.43;8.47;;;5.10;87.10;;;;;;4992406;28;20576;-53
2022/12/24 04:03:13;;;;;;;9.67;8.63;;;5.10;87.50;;;;;;4992846;28;20524;-53
2022/12/24 04:05:40;;;;;;;9.53;8.53;;;5.10;87.40;;;;;;4992156;28;20464;-52
2022/12/24 04:08:06;;;;;;;9.80;8.37;;;5.10;87.10;;;;;;4994420;28;20547;-51
2022/12/24 04:10:34;;;;;;;12.00;9.30;;;5.10;86.90;;;;;;4993780;28;20897;-52
2022/12/24 04:13:01;;;;;;;9.47;8.50;;;5.10;86.60;;;;;;4993864;28;20579;-51
2022/12/24 04:15:27;;;;;;;9.13;8.20;;;5.10;86.40;;;;;;4991859;28;20559;-53
2022/12/24 04:17:54;;;;;;;9.67;8.73;;;5.10;86.30;;;;;;4992527;28;20555;-52
2022/12/24 04:20:20;;;;;;;10.70;8.83;;;5.10;86.50;;;;;;4991636;28;20526;-52
2022/12/24 04:22:47;;;;;;;10.30;9.20;;;5.10;86.70;;;;;;4993694;28;21060;-51
2022/12/24 04:25:14;;;;;;;10.47;7.90;;;5.10;86.60;;;;;;4992072;28;20547;-52
2022/12/24 04:27:42;;;;;;;11.43;9.43;;;5.10;86.20;;;;;;4993782;28;20500;-51
2022/12/24 04:30:09;;;;;;;10.07;8.73;;;5.10;86.00;;;;;;4993535;28;20544;-52
2022/12/24 04:32:36;;;;;;;11.73;8.90;;;5.10;86.10;;;;;;4988278;28;20567;-52
2022/12/24 04:35:02;;;;;;;9.00;8.03;;;5.10;86.20;;;;;;4993422;28;20543;-52
2022/12/24 04:37:29;;;;;;;9.10;7.60;;;5.00;86.20;;;;;;4993366;28;20567;-51
2022/12/24 04:39:55;;;;;;;8.87;8.00;;;5.10;86.10;;;;;;4994088;28;20535;-51
2022/12/24 04:42:22;;;;;;;9.33;8.40;;;5.10;86.30;;;;;;4980335;28;20575;-51
2022/12/24 04:44:50;;;;;;;13.60;8.70;;;5.10;86.20;;;;;;4992740;28;21017;-51
2022/12/24 04:47:16;;;;;;;14.10;9.10;;;5.10;85.90;;;;;;4992019;28;20535;-51
2022/12/24 04:49:43;;;;;;;10.20;9.23;;;5.10;86.00;;;;;;4991667;28;20552;-51
2022/12/24 04:52:09;;;;;;;11.70;8.40;;;5.10;85.80;;;;;;4992053;28;20544;-51
2022/12/24 04:54:36;;;;;;;9.67;8.70;;;5.10;85.80;;;;;;4992536;28;20548;-53
2022/12/24 04:57:02;;;;;;;9.30;8.40;;;5.10;85.70;;;;;;4993099;28;20986;-51
2022/12/24 04:59:29;;;;;;;9.37;8.33;;;5.10;85.40;;;;;;4992885;28;20480;-53
2022/12/24 05:01:57;;;;;;;10.80;7.93;;;5.20;85.30;;;;;;4990892;28;20512;-52
2022/12/24 05:04:23;;;;;;;9.33;8.33;;;5.10;85.10;;;;;;4989449;28;20590;-51
2022/12/24 05:06:50;;;;;;;11.43;8.87;;;5.10;85.00;;;;;;4992307;28;20579;-51
2022/12/24 05:09:16;;;;;;;11.40;8.70;;;5.10;84.60;;;;;;4992636;28;20523;-51
2022/12/24 05:11:43;;;;;;;9.40;8.40;;;5.10;85.00;;;;;;4988613;28;20548;-51
2022/12/24 05:14:09;;;;;;;7.40;6.67;;;5.10;85.20;;;;;;4989887;28;20571;-52
2022/12/24 05:16:37;;;;;;;9.97;8.03;;;5.10;85.10;;;;;;4989635;28;20547;-52
2022/12/24 05:19:05;;;;;;;9.33;8.40;;;5.10;84.90;;;;;;4991753;28;20559;-52
2022/12/24 05:21:31;;;;;;;8.80;7.90;;;5.00;83.10;;;;;;4987610;28;20625;-52
2022/12/24 05:26:45;;;;;;;11.03;8.40;;;5.00;85.00;;;;;;4991687;28;20877;-52
2022/12/24 05:29:12;;;;;;;10.73;8.13;;;5.00;84.50;;;;;;4992733;28;20895;-51
2022/12/24 05:31:40;;;;;;;9.20;8.13;;;5.00;85.30;;;;;;4989510;28;20579;-51
2022/12/24 05:34:08;;;;;;;8.97;7.90;;;5.00;85.30;;;;;;4992070;28;20476;-52
2022/12/24 05:36:35;;;;;;;7.90;7.17;;;5.00;85.00;;;;;;4991308;28;20571;-51
2022/12/24 05:39:02;;;;;;;8.73;7.77;;;5.00;84.90;;;;;;4989744;28;20492;-53
2022/12/24 05:41:28;;;;;;;9.30;7.57;;;5.00;85.00;;;;;;4987937;28;20938;-52
2022/12/24 05:43:55;;;;;;;11.47;8.57;;;5.00;84.80;;;;;;4990718;28;20567;-51
2022/12/24 05:46:24;;;;;;;11.60;8.50;;;5.00;84.40;;;;;;4989336;28;20548;-53
2022/12/24 05:48:51;;;;;;;8.00;7.20;;;5.00;85.00;;;;;;4991585;28;20547;-51
2022/12/24 05:51:21;;;;;;;9.57;7.80;;;4.90;84.40;;;;;;4989517;28;20472;-51
2022/12/24 05:53:49;;;;;;;8.67;7.90;;;4.90;84.70;;;;;;4990564;28;20495;-51
2022/12/24 05:56:18;;;;;;;7.80;7.00;;;4.90;84.80;;;;;;4989802;28;20515;-52
2022/12/24 05:58:45;;;;;;;8.23;7.43;;;4.90;84.60;;;;;;4990286;28;21045;-51
2022/12/24 06:01:12;;;;;;;11.20;7.67;;;5.00;85.10;;;;;;4988399;28;20575;-51
2022/12/24 06:03:39;;;;;;;9.50;8.00;;;5.00;84.80;;;;;;4990607;28;20611;-54
2022/12/24 06:06:08;;;;;;;7.80;7.10;;;5.00;84.80;;;;;;4992067;28;21017;-56
2022/12/24 06:08:37;;;;;;;9.50;7.60;;;5.00;84.90;;;;;;4990874;28;20552;-53
2022/12/24 06:11:07;;;;;;;9.10;8.20;;;5.00;85.00;;;;;;4990939;28;20568;-53
2022/12/24 06:13:34;;;;;;;35.10;26.00;;;5.00;84.40;;;;;;4992293;28;20544;-55
2022/12/24 06:16:03;;;;;;;36.17;28.70;;;4.90;84.40;;;;;;4990724;28;20555;-55
2022/12/24 06:18:30;;;;;;;15.03;13.47;;;5.00;84.50;;;;;;4990394;28;20563;-54
2022/12/24 06:20:58;;;;;;;13.30;10.40;;;4.90;84.60;;;;;;4990906;28;20555;-55
2022/12/24 06:23:25;;;;;;;13.20;10.67;;;5.00;84.90;;;;;;4991351;28;20564;-53
2022/12/24 06:25:56;;;;;;;12.93;9.87;;;4.90;84.60;;;;;;4991371;28;20552;-53
2022/12/24 06:28:23;;;;;;;10.13;7.67;;;4.90;84.80;;;;;;4991754;28;20558;-54
2022/12/24 06:30:50;;;;;;;9.23;8.33;;;5.00;84.90;;;;;;4987403;28;20549;-54
2022/12/24 06:33:17;;;;;;;8.67;7.77;;;5.00;84.70;;;;;;4989669;28;20473;-53
2022/12/24 06:35:45;;;;;;;9.30;8.40;;;4.90;84.50;;;;;;4990003;28;21049;-54
2022/12/24 06:38:12;;;;;;;9.90;7.57;;;4.90;84.10;;;;;;4987686;28;20548;-54
2022/12/24 06:40:39;;;;;;;10.00;7.80;;;4.90;84.40;;;;;;4991351;28;20556;-54
2022/12/24 06:43:07;;;;;;;8.00;7.30;;;4.90;84.10;;;;;;4993896;28;20605;-53
2022/12/24 06:45:34;;;;;;;11.30;8.20;;;4.90;84.10;;;;;;4993939;28;20560;-54
2022/12/24 06:48:01;;;;;;;7.80;7.10;;;4.90;84.70;;;;;;4994475;28;20547;-56
2022/12/24 06:50:28;;;;;;;8.20;7.40;;;5.00;84.40;;;;;;4993066;28;20879;-54
2022/12/24 06:52:54;;;;;;;8.67;7.03;;;5.00;84.60;;;;;;4994664;28;21073;-54
2022/12/24 06:55:21;;;;;;;8.40;7.60;;;5.00;84.10;;;;;;4994609;28;20492;-54
2022/12/24 06:57:47;;;;;;;8.67;7.80;;;5.00;84.60;;;;;;4995078;28;20503;-55
2022/12/24 07:00:16;;;;;;;8.50;7.53;;;5.00;82.60;;;;;;4993236;28;20910;-55
2022/12/24 07:02:44;;;;;;;8.90;7.90;;;5.00;84.10;;;;;;4993807;28;20492;-54
2022/12/24 07:05:12;;;;;;;10.20;8.40;;;5.00;83.90;;;;;;4995028;28;20500;-55
2022/12/24 07:07:39;;;;;;;8.30;7.47;;;5.00;84.10;;;;;;4994040;28;20559;-54
2022/12/24 07:10:07;;;;;;;8.00;7.20;;;5.00;84.10;;;;;;4990364;28;20543;-55
2022/12/24 07:12:34;;;;;;;8.70;7.80;;;5.00;84.10;;;;;;4994279;28;20567;-56
2022/12/24 07:15:00;;;;;;;9.93;7.50;;;5.00;82.20;;;;;;4994577;28;20543;-56
2022/12/24 07:17:28;;;;;;;6.70;6.10;;;5.00;84.60;;;;;;4989654;28;21021;-55
2022/12/24 07:19:55;;;;;;;8.60;7.57;;;5.00;84.30;;;;;;4994112;28;20484;-56
2022/12/24 07:22:21;;;;;;;11.53;8.77;;;5.00;83.80;;;;;;4994549;28;20515;-54
2022/12/24 07:24:48;;;;;;;9.27;8.27;;;5.00;84.00;;;;;;4993388;28;20484;-54
2022/12/24 07:27:14;;;;;;;9.10;7.57;;;5.00;83.30;;;;;;4991664;28;20572;-54
2022/12/24 07:29:41;;;;;;;8.93;8.03;;;5.00;83.60;;;;;;4989017;28;20547;-56
2022/12/24 07:32:08;;;;;;;8.63;7.70;;;5.00;83.60;;;;;;4987145;28;20547;-55
2022/12/24 07:34:36;;;;;;;9.43;8.37;;;5.00;84.20;;;;;;4988185;28;20551;-55
2022/12/24 07:37:03;;;;;;;8.43;7.20;;;5.10;83.90;;;;;;4992335;28;20547;-55
2022/12/24 07:39:29;;;;;;;8.83;7.90;;;5.00;83.90;;;;;;4989247;28;20539;-54
2022/12/24 07:41:56;;;;;;;8.27;7.40;;;5.00;83.30;;;;;;4990383;28;21100;-56
2022/12/24 07:44:23;;;;;;;8.47;7.50;;;5.00;83.80;;;;;;4992035;28;20498;-55
2022/12/24 07:46:49;;;;;;;13.80;9.97;;;5.10;83.40;;;;;;4992630;28;21021;-54
2022/12/24 07:49:16;;;;;;;10.83;8.80;;;5.00;82.90;;;;;;4991183;28;20548;-54
2022/12/24 07:51:44;;;;;;;9.57;8.57;;;5.10;83.40;;;;;;4983299;28;20547;-54
2022/12/24 07:54:10;;;;;;;8.60;7.80;;;5.10;83.30;;;;;;4988275;28;20480;-54
2022/12/24 07:56:37;;;;;;;11.87;8.07;;;5.00;82.90;;;;;;4976986;28;20934;-54
2022/12/24 07:59:03;;;;;;;11.87;9.00;;;5.10;82.90;;;;;;4983452;28;20457;-53
2022/12/24 08:01:30;;;;;;;12.27;10.63;;;5.10;82.80;;;;;;4968407;28;20552;-53
2022/12/24 08:03:57;;;;;;;11.07;9.27;;;5.10;82.70;;;;;;4991067;28;20508;-54
2022/12/24 08:06:24;;;;;;;9.50;8.60;;;5.10;81.80;;;;;;4988068;28;20560;-54
2022/12/24 08:08:51;;;;;;;9.20;8.33;;;5.00;81.20;;;;;;4986360;28;20559;-54
2022/12/24 08:11:18;;;;;;;9.23;7.68;;;5.00;81.80;;;;;;4989052;28;20567;-54
2022/12/24 08:13:44;;;;;;;10.00;7.90;;;5.10;81.90;;;;;;4990975;28;20313;-54
2022/12/24 08:16:12;;;;;;;9.77;8.30;;;5.00;82.10;;;;;;4983183;28;20489;-54
2022/12/24 08:18:38;;;;;;;14.60;11.20;;;5.10;81.80;;;;;;4982265;28;20901;-55
2022/12/24 08:21:07;;;;;;;22.07;14.50;;;5.10;81.10;;;;;;4989129;28;20556;-54
2022/12/24 08:23:34;;;;;;;15.07;11.73;;;5.10;80.50;;;;;;4982105;28;20489;-54
2022/12/24 08:26:02;;;;;;;13.30;11.03;;;5.10;81.00;;;;;;4985361;28;20910;-53
2022/12/24 08:28:29;;;;;;;19.23;13.00;;;5.10;81.30;;;;;;4979270;28;20552;-53
2022/12/24 08:30:56;;;;;;;15.60;13.40;;;5.10;81.10;;;;;;4983279;28;20472;-54
2022/12/24 08:33:22;;;;;;;16.17;13.23;;;5.10;80.90;;;;;;4987220;28;20900;-54
2022/12/24 08:35:50;;;;;;;12.07;10.90;;;5.20;81.10;;;;;;4990114;28;21025;-55
2022/12/24 08:38:17;;;;;;;10.50;9.50;;;5.20;80.50;;;;;;4984452;28;20556;-54
2022/12/24 08:40:46;;;;;;;9.60;8.47;;;5.20;80.40;;;;;;4981975;28;20560;-53
2022/12/24 08:43:13;;;;;;;13.57;9.30;;;5.20;80.20;;;;;;4983021;28;20516;-54
2022/12/24 08:45:40;;;;;;;9.27;8.37;;;5.20;80.10;;;;;;4982325;28;20556;-54
2022/12/24 08:48:07;;;;;;;8.60;7.80;;;5.20;79.30;;;;;;4983780;28;20496;-53
2022/12/24 08:50:33;;;;;;;7.90;7.10;;;5.20;78.40;;;;;;4984199;28;20916;-54
2022/12/24 08:53:00;;;;;;;8.87;8.00;;;5.20;78.20;;;;;;4985957;28;20571;-54
2022/12/24 08:55:27;;;;;;;8.47;7.60;;;5.20;77.70;;;;;;4985228;28;21062;-54
2022/12/24 08:57:53;;;;;;;8.70;7.80;;;5.20;77.70;;;;;;4986975;28;20877;-54
2022/12/24 09:00:21;;;;;;;9.57;8.67;;;5.30;77.40;;;;;;4984966;28;20531;-54
2022/12/24 09:02:48;;;;;;;9.63;8.70;;;5.40;76.60;;;;;;4981652;28;20579;-54
2022/12/24 09:05:14;;;;;;;8.67;7.83;;;5.40;75.90;;;;;;4987379;28;20580;-54
2022/12/24 09:07:41;;;;;;;7.87;7.17;;;5.30;75.50;;;;;;4981835;28;20548;-54
2022/12/24 09:10:09;;;;;;;7.63;6.90;;;5.40;75.50;;;;;;4983048;28;20934;-55
2022/12/24 09:12:36;;;;;;;8.53;7.73;;;5.40;75.00;;;;;;4983842;28;20926;-54
2022/12/24 09:15:02;;;;;;;7.20;6.50;;;5.30;74.30;;;;;;4983919;28;20567;-55
2022/12/24 09:17:30;;;;;;;8.00;7.30;;;5.40;74.20;;;;;;4979814;28;20495;-54
2022/12/24 09:19:57;;;;;;;6.70;6.10;;;5.40;74.30;;;;;;4991304;28;20527;-52
2022/12/24 09:22:24;;;;;;;6.10;5.50;;;5.40;74.00;;;;;;4987789;28;20539;-54
2022/12/24 09:24:50;;;;;;;11.27;10.17;;;5.50;73.60;;;;;;4987144;28;20556;-55
2022/12/24 09:27:17;;;;;;;19.40;16.53;;;5.40;73.20;;;;;;4981289;28;20553;-54
2022/12/24 09:29:43;;;;;;;20.70;17.13;;;5.50;73.20;;;;;;4990105;28;20585;-54
2022/12/24 09:32:10;;;;;;;27.73;20.17;;;5.50;73.00;;;;;;4988910;28;21037;-53
2022/12/24 09:34:39;;;;;;;19.50;14.10;;;5.50;73.10;;;;;;4988233;28;20497;-54
2022/12/24 09:37:05;;;;;;;22.33;14.23;;;5.50;72.90;;;;;;4988590;28;20473;-55
2022/12/24 09:39:32;;;;;;;16.07;13.30;;;5.50;72.70;;;;;;4988983;28;20904;-55
2022/12/24 09:42:12;;;;;;;16.67;13.17;;;5.50;72.60;;;;;;4989957;28;20563;-55
2022/12/24 09:44:43;;;;;;;11.70;10.10;;;5.50;72.90;;;;;;4983687;28;20539;-54
2022/12/24 09:47:22;;;;;;;12.47;11.17;;;5.60;72.70;;;;;;4982818;28;20587;-53
2022/12/24 09:49:54;;;;;;;7.53;6.83;;;5.60;72.30;;;;;;4983942;28;20555;-55
2022/12/24 09:52:28;;;;;;;7.57;6.87;;;5.60;72.30;;;;;;4989877;28;20452;-54
2022/12/24 09:55:00;;;;;;;7.53;6.73;;;5.60;72.50;;;;;;4984135;28;20550;-54
2022/12/24 09:57:31;;;;;;;9.53;5.70;;;5.60;72.00;;;;;;4988022;28;20496;-54
2022/12/24 09:59:58;;;;;;;5.20;4.83;;;5.60;72.40;;;;;;4983841;28;20467;-54
2022/12/24 10:02:24;;;;;;;6.70;5.70;;;5.60;72.20;;;;;;4977678;28;20492;-54
2022/12/24 10:04:54;;;;;;;6.77;6.07;;;5.60;73.30;;;;;;4982444;28;20585;-54
2022/12/24 10:07:31;;;;;;;6.07;5.47;;;5.60;73.40;;;;;;4990095;28;20469;-55
2022/12/24 10:10:07;;;;;;;7.20;6.50;;;5.60;73.00;;;;;;4984945;28;20551;-53
2022/12/24 10:12:42;;;;;;;5.50;5.00;;;5.60;72.60;;;;;;4980148;28;20480;-54
2022/12/24 10:15:16;;;;;;;7.43;5.80;;;5.70;72.50;;;;;;4983176;28;20551;-54
2022/12/24 10:17:56;;;;;;;6.83;6.20;;;5.60;73.40;;;;;;4985221;28;20550;-55
2022/12/24 10:20:35;;;;;;;6.03;5.53;;;5.60;73.60;;;;;;4988087;28;20504;-54
2022/12/24 10:23:11;;;;;;;6.40;5.80;;;5.60;73.60;;;;;;4989027;28;20531;-55
2022/12/24 10:25:45;;;;;;;6.37;5.73;;;5.60;73.00;;;;;;4988971;28;20542;-54
2022/12/24 10:28:15;;;;;;;7.60;6.40;;;5.70;73.20;;;;;;4987278;28;20552;-56
2022/12/24 10:30:44;;;;;;;6.80;6.17;;;5.70;72.90;;;;;;4989434;28;20899;-53
2022/12/24 10:33:18;;;;;;;8.07;7.30;;;5.60;74.10;;;;;;4990069;28;20516;-54
2022/12/24 10:35:50;;;;;;;6.40;5.80;;;5.70;73.10;;;;;;4987238;28;20567;-54
2022/12/24 10:38:17;;;;;;;7.70;7.00;;;5.70;73.00;;;;;;4982305;28;20536;-54
2022/12/24 10:40:46;;;;;;;12.33;8.27;;;5.70;72.90;;;;;;4981782;28;20527;-54
2022/12/24 10:43:15;;;;;;;10.10;9.10;;;5.70;72.90;;;;;;4986376;28;20575;-54
2022/12/24 10:45:46;;;;;;;7.53;6.83;;;5.70;73.10;;;;;;4982127;28;20564;-54
2022/12/24 10:48:21;;;;;;;6.73;6.13;;;5.70;72.70;;;;;;4988077;28;20468;-54
2022/12/24 10:50:55;;;;;;;11.20;10.10;;;5.70;72.30;;;;;;4987938;28;20488;-53
2022/12/24 10:53:28;;;;;;;8.80;7.90;;;5.70;72.10;;;;;;4989841;28;20510;-56
2022/12/24 10:56:03;;;;;;;7.43;6.73;;;5.80;71.40;;;;;;4989122;28;20557;-54
2022/12/24 10:58:30;;;;;;;9.03;6.80;;;5.70;71.20;;;;;;4979240;28;20460;-54
2022/12/24 11:00:57;;;;;;;11.27;7.37;;;5.80;70.90;;;;;;4986658;28;20540;-54
2022/12/24 11:03:30;;;;;;;7.20;6.60;;;5.80;70.80;;;;;;4985363;28;20583;-54
2022/12/24 11:06:04;;;;;;;7.87;7.07;;;5.90;69.90;;;;;;4985690;28;20483;-55
2022/12/24 11:08:31;;;;;;;7.93;7.10;;;5.80;70.50;;;;;;4984592;28;20471;-54
2022/12/24 11:10:59;;;;;;;7.30;6.70;;;5.90;69.70;;;;;;4987017;28;20595;-53
2022/12/24 11:13:29;;;;;;;8.50;7.33;;;5.90;69.60;;;;;;4983168;28;20572;-54
2022/12/24 11:16:05;;;;;;;7.97;7.27;;;5.90;70.00;;;;;;4987289;28;20559;-54
2022/12/24 11:18:34;;;;;;;9.37;8.47;;;5.90;69.70;;;;;;4983272;28;20548;-54
2022/12/24 11:21:04;;;;;;;8.93;8.03;;;5.80;71.00;;;;;;4989979;28;20543;-54
2022/12/24 11:23:31;;;;;;;7.73;6.93;;;5.90;70.50;;;;;;4988240;28;20579;-55
2022/12/24 11:25:58;;;;;;;11.57;8.80;;;5.90;70.70;;;;;;4988681;28;20464;-53
2022/12/24 11:28:27;;;;;;;9.87;8.87;;;5.80;70.30;;;;;;4986199;28;20551;-53
2022/12/24 11:31:02;;;;;;;9.13;8.27;;;5.90;69.70;;;;;;4986344;28;20492;-54
2022/12/24 11:33:30;;;;;;;10.23;9.23;;;5.90;69.50;;;;;;4982715;28;20586;-55
2022/12/24 11:36:03;;;;;;;10.40;9.30;;;6.00;69.20;;;;;;4984259;28;20555;-55
2022/12/24 11:38:33;;;;;;;10.67;9.57;;;6.00;69.00;;;;;;4992593;28;20555;-55
2022/12/24 11:41:09;;;;;;;11.13;9.93;;;6.00;68.90;;;;;;4990649;28;20492;-54
2022/12/24 11:43:46;;;;;;;10.60;9.60;;;6.00;67.00;;;;;;4987569;28;20476;-54
2022/12/24 11:46:21;;;;;;;11.20;10.10;;;6.10;68.30;;;;;;4987586;28;20456;-55
2022/12/24 11:48:48;;;;;;;13.30;11.90;;;6.10;68.00;;;;;;4985837;28;20563;-56
2022/12/24 11:51:23;;;;;;;12.77;11.37;;;6.10;67.90;;;;;;4988404;28;20504;-55
2022/12/24 11:53:57;;;;;;;18.70;9.87;;;6.10;68.10;;;;;;4993995;28;20547;-54
2022/12/24 11:56:32;;;;;;;12.53;10.40;;;6.10;65.10;;;;;;4992433;28;20496;-51
2022/12/24 11:59:03;;;;;;;10.87;9.77;;;6.20;66.30;;;;;;4992350;28;20858;-51
2022/12/24 12:01:34;;;;;;;12.77;10.63;;;6.20;66.00;;;;;;4987337;28;20477;-51
2022/12/24 12:04:05;;;;;;;11.67;10.33;;;6.20;66.00;;;;;;4990627;28;20571;-51
2022/12/24 12:06:39;;;;;;;12.23;10.97;;;6.30;65.60;;;;;;4992468;28;20555;-51
2022/12/24 12:09:11;;;;;;;11.33;10.13;;;6.40;65.00;;;;;;4987600;28;20552;-51
2022/12/24 12:11:41;;;;;;;9.97;9.07;;;6.40;64.50;;;;;;4991065;28;20539;-51
2022/12/24 12:14:14;;;;;;;9.00;8.20;;;6.40;64.20;;;;;;4992007;28;20508;-52
2022/12/24 12:17:03;;;;;;;9.70;8.80;;;6.50;63.80;;;;;;4987005;28;20461;-53
2022/12/24 12:19:41;;;;;;;11.00;9.83;;;6.50;63.50;;;;;;4989677;28;21018;-51
2022/12/24 12:22:18;;;;;;;10.07;9.07;;;6.50;63.30;;;;;;4991662;28;20552;-51
2022/12/24 12:24:50;;;;;;;11.60;10.00;;;6.60;63.20;;;;;;4989210;28;20476;-51
2022/12/24 12:27:24;;;;;;;9.73;8.73;;;6.50;63.30;;;;;;4990135;28;20919;-51
2022/12/24 12:29:57;;;;;;;11.00;9.77;;;6.50;63.10;;;;;;4991709;28;20469;-51
2022/12/24 12:32:30;;;;;;;11.13;9.90;;;6.50;62.90;;;;;;4991634;28;20852;-52
2022/12/24 12:35:05;;;;;;;9.67;8.70;;;6.50;62.70;;;;;;4990820;28;20547;-52
2022/12/24 12:37:35;;;;;;;10.83;9.80;;;6.50;62.30;;;;;;4990008;28;21061;-51
2022/12/24 12:40:02;;;;;;;9.80;8.23;;;6.50;62.00;;;;;;4988985;28;20514;-52
2022/12/24 12:42:32;;;;;;;13.17;9.83;;;6.50;61.50;;;;;;4987428;28;20623;-51
2022/12/24 12:45:32;;;;;;;10.20;9.00;;;6.50;61.20;;;;;;4988193;28;20516;-52
2022/12/24 12:48:23;;;;;;;10.77;9.50;;;6.60;60.80;;;;;;4987569;28;20912;-52
2022/12/24 12:50:56;;;;;;;12.70;10.03;;;6.50;60.30;;;;;;4991303;28;20556;-51
2022/12/24 12:53:43;;;;;;;10.53;9.50;;;6.60;59.90;;;;;;4991731;28;21038;-52
2022/12/24 12:56:22;;;;;;;13.20;10.10;;;6.60;59.50;;;;;;4988768;28;20457;-51
2022/12/24 12:58:57;;;;;;;12.67;10.77;;;6.60;59.20;;;;;;4984737;28;20467;-51
2022/12/24 13:01:29;;;;;;;9.60;8.70;;;6.60;59.30;;;;;;4987544;28;20495;-51
2022/12/24 13:04:29;;;;;;;11.40;9.40;;;6.60;58.90;;;;;;4989411;28;20932;-53
2022/12/24 13:07:24;;;;;;;10.90;9.57;;;6.60;58.80;;;;;;4985954;28;20469;-51
2022/12/24 13:10:18;;;;;;;13.43;10.10;;;6.60;58.50;;;;;;4984747;28;20530;-53